createdAt,value
2022-10-03T00:00:19.455Z,7.80
2022-10-03T00:03:10.348Z,7.70
2022-10-03T00:05:52.351Z,7.70
2022-10-03T00:08:39.508Z,7.60
2022-10-03T00:11:23.178Z,7.70
2022-10-03T00:14:02.813Z,7.70
2022-10-03T00:16:40.430Z,7.70
2022-10-03T00:22:19.751Z,7.60
2022-10-03T00:25:31.326Z,7.60
2022-10-03T00:28:14.831Z,7.50
2022-10-03T00:30:57.956Z,7.50
2022-10-03T00:33:35.806Z,7.50
2022-10-03T00:36:14.073Z,7.50
2022-10-03T00:39:07.160Z,7.50
2022-10-03T00:42:06.683Z,7.40
2022-10-03T00:45:10.520Z,7.40
2022-10-03T00:48:02.359Z,7.40
2022-10-03T00:51:06.165Z,7.40
2022-10-03T00:54:01.415Z,7.30
2022-10-03T00:56:48.879Z,7.20
2022-10-03T00:59:50.729Z,7.20
2022-10-03T01:02:57.632Z,7.20
2022-10-03T01:05:38.578Z,7.20
2022-10-03T01:08:35.200Z,7.20
2022-10-03T01:11:17.411Z,7.20
2022-10-03T01:13:58.545Z,7.10
2022-10-03T01:16:38.861Z,7.10
2022-10-03T01:19:40.830Z,7.10
2022-10-03T01:22:27.765Z,7.10
2022-10-03T01:25:00.545Z,7.00
2022-10-03T01:27:59.977Z,6.90
2022-10-03T01:30:39.564Z,7.00
2022-10-03T01:33:15.182Z,6.90
2022-10-03T01:35:56.131Z,6.80
2022-10-03T01:38:31.379Z,6.80
2022-10-03T01:41:04.900Z,6.70
2022-10-03T01:43:57.096Z,6.70
2022-10-03T01:46:37.646Z,6.70
2022-10-03T01:49:15.242Z,6.70
2022-10-03T01:51:53.478Z,6.70
2022-10-03T01:54:29.627Z,6.70
2022-10-03T01:57:02.023Z,6.80
2022-10-03T01:59:39.913Z,6.80
2022-10-03T02:02:13.972Z,6.90
2022-10-03T02:04:48.783Z,7.00
2022-10-03T02:07:25.403Z,7.00
2022-10-03T02:10:04.055Z,6.90
2022-10-03T02:12:39.096Z,6.70
2022-10-03T02:15:17.753Z,6.60
2022-10-03T02:17:57.920Z,6.60
2022-10-03T02:20:34.039Z,6.60
2022-10-03T02:23:02.372Z,6.60
2022-10-03T02:25:53.095Z,6.60
2022-10-03T02:28:59.605Z,6.60
2022-10-03T02:32:11.537Z,6.60
2022-10-03T02:35:10.869Z,6.60
2022-10-03T02:38:05.808Z,6.70
2022-10-03T02:41:01.560Z,6.70
2022-10-03T02:44:14.422Z,6.70
2022-10-03T02:47:33.337Z,6.70
2022-10-03T02:50:27.944Z,6.60
2022-10-03T02:53:30.340Z,6.60
2022-10-03T02:56:44.193Z,6.60
2022-10-03T02:59:59.277Z,6.60
2022-10-03T03:03:01.493Z,6.50
2022-10-03T03:06:12.108Z,6.50
2022-10-03T03:09:26.241Z,6.50
2022-10-03T03:12:41.087Z,6.40
2022-10-03T03:15:59.649Z,6.40
2022-10-03T03:18:35.961Z,6.40
2022-10-03T03:21:17.022Z,6.40
2022-10-03T03:24:17.165Z,6.40
2022-10-03T03:27:01.735Z,6.30
2022-10-03T03:29:41.953Z,6.40
2022-10-03T03:32:27.334Z,6.30
2022-10-03T03:35:07.411Z,6.30
2022-10-03T03:37:46.490Z,6.30
2022-10-03T03:40:36.314Z,6.20
2022-10-03T03:43:23.790Z,6.20
2022-10-03T03:46:06.005Z,6.20
2022-10-03T03:48:55.494Z,6.20
2022-10-03T03:51:35.179Z,6.20
2022-10-03T03:54:32.980Z,6.20
2022-10-03T03:57:28.954Z,6.20
2022-10-03T04:00:18.123Z,6.20
2022-10-03T04:03:18.868Z,6.20
2022-10-03T04:06:06.059Z,6.00
2022-10-03T04:09:18.996Z,6.00
2022-10-03T04:11:57.851Z,6.00
2022-10-03T04:14:51.277Z,6.00
2022-10-03T04:18:06.014Z,6.00
2022-10-03T04:20:58.720Z,5.90
2022-10-03T04:24:07.768Z,5.90
2022-10-03T04:26:52.603Z,5.80
2022-10-03T04:29:56.629Z,5.90
2022-10-03T04:32:49.904Z,5.90
2022-10-03T04:35:48.688Z,5.90
2022-10-03T04:38:22.380Z,5.90
2022-10-03T04:40:59.873Z,5.90
2022-10-03T04:43:38.563Z,5.70
2022-10-03T04:46:24.034Z,5.60
2022-10-03T04:49:01.658Z,5.50
2022-10-03T04:51:44.556Z,5.40
2022-10-03T04:57:01.107Z,5.40
2022-10-03T04:59:47.521Z,5.30
2022-10-03T05:02:28.754Z,5.40
2022-10-03T05:05:15.912Z,5.40
2022-10-03T05:07:53.576Z,5.40
2022-10-03T05:10:32.329Z,5.40
2022-10-03T05:13:12.278Z,5.30
2022-10-03T05:15:52.044Z,5.30
2022-10-03T05:21:02.928Z,5.40
2022-10-03T05:23:48.935Z,5.50
2022-10-03T05:26:44.511Z,5.60
2022-10-03T05:29:21.002Z,5.70
2022-10-03T05:31:58.065Z,5.70
2022-10-03T05:34:56.324Z,5.70
2022-10-03T05:37:48.851Z,5.90
2022-10-03T05:40:22.210Z,6.00
2022-10-03T05:43:03.882Z,6.10
2022-10-03T05:45:43.243Z,6.20
2022-10-03T05:48:25.527Z,6.20
2022-10-03T05:51:20.975Z,6.30
2022-10-03T05:54:22.269Z,6.30
2022-10-03T05:57:26.818Z,6.20
2022-10-03T06:04:39.175Z,6.30
2022-10-03T06:07:26.613Z,6.40
2022-10-03T06:10:34.303Z,6.50
2022-10-03T06:13:18.465Z,6.60
2022-10-03T06:16:08.733Z,6.70
2022-10-03T06:19:10.879Z,6.80
2022-10-03T06:22:11.539Z,6.90
2022-10-03T06:25:20.396Z,6.90
2022-10-03T06:28:39.673Z,7.00
2022-10-03T06:31:45.169Z,7.10
2022-10-03T06:34:53.427Z,7.00
2022-10-03T06:37:57.984Z,7.20
2022-10-03T06:40:59.865Z,7.30
2022-10-03T06:43:57.215Z,7.40
2022-10-03T06:46:53.477Z,7.50
2022-10-03T06:49:43.866Z,7.60
2022-10-03T06:52:42.678Z,7.70
2022-10-03T06:56:03.777Z,7.80
2022-10-03T06:59:05.634Z,7.90
2022-10-03T07:02:06.609Z,8.00
2022-10-03T07:05:11.445Z,8.10
2022-10-03T07:08:23.894Z,8.20
2022-10-03T07:11:07.355Z,8.20
2022-10-03T07:14:16.203Z,8.30
2022-10-03T07:17:17.589Z,8.40
2022-10-03T07:20:24.093Z,8.50
2022-10-03T07:23:28.278Z,8.60
2022-10-03T07:34:23.180Z,8.80
2022-10-03T07:40:51.292Z,9.10
2022-10-03T07:43:47.219Z,9.00
2022-10-03T07:46:47.941Z,9.00
2022-10-03T07:53:17.164Z,9.30
2022-10-03T07:56:09.826Z,9.10
2022-10-03T07:58:56.223Z,9.00
2022-10-03T08:09:04.608Z,9.40
2022-10-03T08:12:08.730Z,9.60
2022-10-03T08:14:52.929Z,9.90
2022-10-03T08:17:59.238Z,9.90
2022-10-03T08:21:01.428Z,10.40
2022-10-03T08:24:11.707Z,10.60
2022-10-03T08:27:00.915Z,10.90
2022-10-03T08:29:47.298Z,11.00
2022-10-03T08:33:01.469Z,11.10
2022-10-03T08:39:14.297Z,10.80
2022-10-03T08:42:14.467Z,10.60
2022-10-03T08:45:06.187Z,10.70
2022-10-03T08:48:17.692Z,10.80
2022-10-03T08:51:34.317Z,10.80
2022-10-03T08:54:11.113Z,11.20
2022-10-03T08:56:58.855Z,11.60
2022-10-03T09:00:20.620Z,11.70
2022-10-03T09:03:43.347Z,11.30
2022-10-03T09:07:12.583Z,11.50
2022-10-03T09:10:22.783Z,11.80
2022-10-03T09:13:11.971Z,11.90
2022-10-03T09:16:21.032Z,12.00
2022-10-03T09:19:13.731Z,12.60
2022-10-03T09:22:19.625Z,12.60
2022-10-03T09:25:12.647Z,12.60
2022-10-03T09:31:38.016Z,12.80
2022-10-03T09:38:01.396Z,12.40
2022-10-03T09:41:03.163Z,12.50
2022-10-03T09:44:37.225Z,12.50
2022-10-03T09:48:00.728Z,12.50
2022-10-03T09:51:29.792Z,12.60
2022-10-03T09:54:35.210Z,12.90
2022-10-03T09:57:47.168Z,13.10
2022-10-03T10:00:28.980Z,13.30
2022-10-03T10:03:48.209Z,13.00
2022-10-03T10:06:52.804Z,13.10
2022-10-03T10:09:58.279Z,13.00
2022-10-03T10:12:52.575Z,13.40
2022-10-03T10:15:51.331Z,13.40
2022-10-03T10:19:09.683Z,13.60
2022-10-03T10:22:12.664Z,13.40
2022-10-03T10:25:18.817Z,13.20
2022-10-03T10:28:30.406Z,13.50
2022-10-03T10:31:48.839Z,13.70
2022-10-03T10:34:55.711Z,13.70
2022-10-03T10:38:03.716Z,13.80
2022-10-03T10:41:09.104Z,14.00
2022-10-03T10:44:21.041Z,14.30
2022-10-03T10:47:52.482Z,14.30
2022-10-03T10:51:19.061Z,14.50
2022-10-03T10:54:41.699Z,14.50
2022-10-03T10:57:40.667Z,14.40
2022-10-03T11:00:28.269Z,14.00
2022-10-03T11:03:53.459Z,14.00
2022-10-03T11:07:18.182Z,14.00
2022-10-03T11:10:51.589Z,14.20
2022-10-03T11:14:00.975Z,14.10
2022-10-03T11:17:20.152Z,14.20
2022-10-03T11:20:44.979Z,14.40
2022-10-03T11:23:55.810Z,14.70
2022-10-03T11:27:10.082Z,14.70
2022-10-03T11:30:19.453Z,14.90
2022-10-03T11:40:36.902Z,14.30
2022-10-03T11:43:33.082Z,14.10
2022-10-03T11:46:29.076Z,14.00
2022-10-03T11:49:12.746Z,14.10
2022-10-03T11:51:52.810Z,14.00
2022-10-03T11:54:32.224Z,14.00
2022-10-03T11:57:19.540Z,14.20
2022-10-03T12:00:28.852Z,14.30
2022-10-03T12:03:20.376Z,14.70
2022-10-03T12:06:14.370Z,14.60
2022-10-03T12:09:24.628Z,14.50
2022-10-03T12:12:10.158Z,14.80
2022-10-03T12:14:46.840Z,14.70
2022-10-03T12:17:23.828Z,14.70
2022-10-03T12:20:06.278Z,14.80
2022-10-03T12:22:55.111Z,14.50
2022-10-03T12:25:25.967Z,14.40
2022-10-03T12:31:19.438Z,14.30
2022-10-03T12:33:59.704Z,14.50
2022-10-03T12:36:56.348Z,14.30
2022-10-03T12:39:50.318Z,14.10
2022-10-03T12:42:40.789Z,14.30
2022-10-03T12:45:24.529Z,14.40
2022-10-03T12:48:17.230Z,14.00
2022-10-03T12:51:08.752Z,14.00
2022-10-03T12:53:56.972Z,14.10
2022-10-03T12:57:00.135Z,14.20
2022-10-03T12:59:57.290Z,14.30
2022-10-03T13:03:33.179Z,14.20
2022-10-03T13:10:11.688Z,14.40
2022-10-03T13:12:59.127Z,14.50
2022-10-03T13:16:33.367Z,14.30
2022-10-03T13:19:20.557Z,14.30
2022-10-03T13:22:31.136Z,14.40
2022-10-03T13:25:19.394Z,14.40
2022-10-03T13:28:02.309Z,14.50
2022-10-03T13:31:01.634Z,14.60
2022-10-03T13:33:33.567Z,14.60
2022-10-03T13:36:15.029Z,14.60
2022-10-03T13:39:08.853Z,14.50
2022-10-03T13:42:02.443Z,14.60
2022-10-03T13:44:38.568Z,14.50
2022-10-03T13:47:20.605Z,14.50
2022-10-03T13:53:29.670Z,14.40
2022-10-03T14:00:01.612Z,14.50
2022-10-03T14:03:01.799Z,14.70
2022-10-03T14:05:56.696Z,14.60
2022-10-03T14:08:46.303Z,14.70
2022-10-03T14:11:30.268Z,14.50
2022-10-03T14:14:34.437Z,14.50
2022-10-03T14:17:12.810Z,14.70
2022-10-03T14:19:51.306Z,14.70
2022-10-03T14:25:48.380Z,14.80
2022-10-03T14:28:39.367Z,15.00
2022-10-03T14:31:16.383Z,14.80
2022-10-03T14:33:50.478Z,14.60
2022-10-03T14:36:35.778Z,14.60
2022-10-03T14:39:35.819Z,14.60
2022-10-03T14:42:29.176Z,14.60
2022-10-03T14:45:06.573Z,14.50
2022-10-03T14:51:15.125Z,14.40
2022-10-03T14:53:56.395Z,14.50
2022-10-03T14:56:27.686Z,14.50
2022-10-03T14:58:59.123Z,14.30
2022-10-03T15:01:28.872Z,14.30
2022-10-03T15:04:04.421Z,14.30
2022-10-03T15:06:38.710Z,14.40
2022-10-03T15:09:12.759Z,14.30
2022-10-03T15:11:49.531Z,14.20
2022-10-03T15:14:18.437Z,14.20
2022-10-03T15:17:07.218Z,14.20
2022-10-03T15:19:44.937Z,14.20
2022-10-03T15:22:46.886Z,14.00
2022-10-03T15:28:16.075Z,14.00
2022-10-03T15:37:23.090Z,13.80
2022-10-03T15:39:54.349Z,13.80
2022-10-03T15:42:35.111Z,13.80
2022-10-03T15:45:34.900Z,13.70
2022-10-03T15:48:13.801Z,13.70
2022-10-03T15:50:57.694Z,13.70
2022-10-03T15:53:54.310Z,13.60
2022-10-03T16:00:03.897Z,13.60
2022-10-03T16:02:47.129Z,13.60
2022-10-03T16:05:31.942Z,13.60
2022-10-03T16:08:06.879Z,13.50
2022-10-03T16:10:40.722Z,13.50
2022-10-03T16:13:26.820Z,13.50
2022-10-03T16:16:16.983Z,13.50
2022-10-03T16:18:54.882Z,13.50
2022-10-03T16:21:23.402Z,13.50
2022-10-03T16:24:14.901Z,13.40
2022-10-03T16:26:53.252Z,13.40
2022-10-03T16:29:28.719Z,13.40
2022-10-03T16:35:59.206Z,13.40
2022-10-03T16:38:35.421Z,13.30
2022-10-03T16:41:10.443Z,13.30
2022-10-03T16:43:59.827Z,13.30
2022-10-03T16:47:05.843Z,13.20
2022-10-03T16:50:02.680Z,13.20
2022-10-03T16:52:34.645Z,13.10
2022-10-03T16:55:11.560Z,13.10
2022-10-03T16:57:58.500Z,13.10
2022-10-03T17:00:47.569Z,13.10
2022-10-03T17:06:32.080Z,13.10
2022-10-03T17:09:09.786Z,13.10
2022-10-03T17:11:41.830Z,13.10
2022-10-03T17:14:15.181Z,13.00
2022-10-03T17:16:54.057Z,13.00
2022-10-03T17:19:33.417Z,13.00
2022-10-03T17:22:47.601Z,12.90
2022-10-03T17:28:54.878Z,12.90
2022-10-03T17:31:35.456Z,12.90
2022-10-03T17:34:13.856Z,12.70
2022-10-03T17:40:22.487Z,12.70
2022-10-03T17:43:12.939Z,12.60
2022-10-03T17:45:52.601Z,12.60
2022-10-03T17:58:31.901Z,12.60
2022-10-03T18:01:08.039Z,12.60
2022-10-03T18:03:46.758Z,12.50
2022-10-03T18:06:54.582Z,12.50
2022-10-03T18:10:01.249Z,12.50
2022-10-03T18:12:39.776Z,12.50
2022-10-03T18:15:42.667Z,12.40
2022-10-03T18:18:48.796Z,12.40
2022-10-03T18:21:40.667Z,12.40
2022-10-03T18:28:24.342Z,12.30
2022-10-03T18:34:18.042Z,12.20
2022-10-03T18:36:51.587Z,12.10
2022-10-03T18:39:24.196Z,12.00
2022-10-03T18:41:58.455Z,12.00
2022-10-03T18:44:33.300Z,11.90
2022-10-03T18:47:27.202Z,11.80
2022-10-03T18:50:06.503Z,11.70
2022-10-03T18:52:53.721Z,11.60
2022-10-03T18:55:44.005Z,11.50
2022-10-03T18:58:20.803Z,11.40
2022-10-03T19:01:00.733Z,11.40
2022-10-03T19:03:38.347Z,11.40
2022-10-03T19:06:41.697Z,11.40
2022-10-03T19:09:32.587Z,11.30
2022-10-03T19:12:32.306Z,11.20
2022-10-03T19:15:27.937Z,11.20
2022-10-03T19:18:23.406Z,11.10
2022-10-03T19:20:58.031Z,11.00
2022-10-03T19:23:34.526Z,11.00
2022-10-03T19:26:07.840Z,11.00
2022-10-03T19:28:39.840Z,10.90
2022-10-03T19:31:17.104Z,10.90
2022-10-03T19:33:53.003Z,10.90
2022-10-03T19:36:28.060Z,10.90
2022-10-03T19:39:00.426Z,10.80
2022-10-03T19:41:34.737Z,10.80
2022-10-03T19:44:09.365Z,10.80
2022-10-03T19:46:58.213Z,10.70
2022-10-03T19:56:50.481Z,10.40
2022-10-03T19:59:37.518Z,10.30
2022-10-03T20:02:07.714Z,10.30
2022-10-03T20:04:38.895Z,10.40
2022-10-03T20:07:17.427Z,10.30
2022-10-03T20:09:58.613Z,10.30
2022-10-03T20:12:31.715Z,10.40
2022-10-03T20:15:08.890Z,10.40
2022-10-03T20:17:41.306Z,10.50
2022-10-03T20:20:21.667Z,10.50
2022-10-03T20:22:51.071Z,10.50
2022-10-03T20:25:37.374Z,10.50
2022-10-03T20:28:34.662Z,10.50
2022-10-03T20:31:03.479Z,10.50
2022-10-03T20:33:34.066Z,10.40
2022-10-03T20:36:11.074Z,10.30
2022-10-03T20:39:03.563Z,10.30
2022-10-03T20:41:41.756Z,10.30
2022-10-03T20:44:20.101Z,10.30
2022-10-03T20:46:52.402Z,10.30
2022-10-03T20:49:30.078Z,10.20
2022-10-03T20:52:04.182Z,10.20
2022-10-03T20:54:38.414Z,10.20
2022-10-03T20:57:23.789Z,10.10
2022-10-03T21:00:20.163Z,10.10
2022-10-03T21:03:08.571Z,10.10
2022-10-03T21:05:43.308Z,10.00
2022-10-03T21:08:20.725Z,9.90
2022-10-03T21:10:55.445Z,9.80
2022-10-03T21:13:35.160Z,9.80
2022-10-03T21:16:17.135Z,9.70
2022-10-03T21:18:54.670Z,9.70
2022-10-03T21:21:27.979Z,9.60
2022-10-03T21:24:08.144Z,9.60
2022-10-03T21:26:45.094Z,9.60
2022-10-03T21:29:38.769Z,9.50
2022-10-03T21:32:24.244Z,9.40
2022-10-03T21:35:02.138Z,9.30
2022-10-03T21:37:44.342Z,9.20
2022-10-03T21:40:28.378Z,9.20
2022-10-03T21:50:05.621Z,9.10
2022-10-03T21:52:49.947Z,9.20
2022-10-03T21:56:16.529Z,9.10
2022-10-03T21:59:06.963Z,9.10
2022-10-03T22:01:47.097Z,9.00
2022-10-03T22:04:24.178Z,9.00
2022-10-03T22:07:04.925Z,9.00
2022-10-03T22:09:33.564Z,8.90
2022-10-03T22:12:08.078Z,8.90
2022-10-03T22:14:46.177Z,8.80
2022-10-03T22:17:23.325Z,8.80
2022-10-03T22:20:03.175Z,8.80
2022-10-03T22:22:44.126Z,8.80
2022-10-03T22:25:31.577Z,8.70
2022-10-03T22:28:15.383Z,8.70
2022-10-03T22:30:56.601Z,8.70
2022-10-03T22:33:36.359Z,8.60
2022-10-03T22:36:05.335Z,8.60
2022-10-03T22:38:37.115Z,8.50
2022-10-03T22:41:08.465Z,8.50
2022-10-03T22:43:40.027Z,8.50
2022-10-03T22:46:21.000Z,8.40
2022-10-03T22:48:55.113Z,8.40
2022-10-03T22:51:23.557Z,8.30
2022-10-03T22:53:57.124Z,8.30
2022-10-03T22:56:43.641Z,8.20
2022-10-03T22:59:20.947Z,8.20
2022-10-03T23:01:51.530Z,8.20
2022-10-03T23:04:31.767Z,8.20
2022-10-03T23:07:33.645Z,8.10
2022-10-03T23:10:26.624Z,8.10
2022-10-03T23:13:02.320Z,8.10
2022-10-03T23:15:35.497Z,8.10
2022-10-03T23:18:37.266Z,8.00
2022-10-03T23:21:11.961Z,8.00
2022-10-03T23:24:05.852Z,7.90
2022-10-03T23:27:07.978Z,7.90
2022-10-03T23:29:39.003Z,7.90
2022-10-03T23:32:15.678Z,7.80
2022-10-03T23:34:53.565Z,7.80
2022-10-03T23:37:40.598Z,7.70
2022-10-03T23:40:46.764Z,7.70
2022-10-03T23:43:40.052Z,7.80
2022-10-03T23:46:14.015Z,7.60
2022-10-03T23:49:00.409Z,7.60
2022-10-03T23:51:36.119Z,7.60
2022-10-03T23:54:09.028Z,7.60
2022-10-03T23:56:41.138Z,7.50
2022-10-03T23:59:28.130Z,7.50
